Weather History for Eastman, GA

Change the Weather History Date:

Friday, May 10, 2013

  Actual Average Record
Temperature  
Mean Temperature 72 °F -  
Max Temperature 86 °F 81 °F 86 °F (2013)
Min Temperature 57 °F 56 °F 57 °F (2013)
Cooling Degree Days 6    
Growing Degree Days 22 (Base 50)    
Moisture  
Dew Point 59 °F    
Average Humidity 68    
Maximum Humidity 95    
Minimum Humidity 36    
Precipitation  
Precipitation 0.00 in - - ()
Sea Level Pressure  
Sea Level Pressure 30.08 in    
Wind  
Wind Speed 1 mph (SW)    
Max Wind Speed 10 mph    
Max Gust Speed 17 mph    
Visibility 9 miles    
Events      
Averages and records for this station are not official NWS values.
T = Trace of Precipitation, MM = Missing Value Source: NWS Daily Summary

Daily Weather History Graph

Daily Weather History Graph

Search for Another Location

Airport:

Trip Planner

Search our weather history database for the weather conditions in past years. The results will help you decide how hot, cold, wet, or windy it might be!

Date:

Astronomy

May. 10, 2013 Rise Set
Actual Time 6:38 AM EDT 8:20 PM EDT
Civil Twilight 6:11 AM EDT 8:46 PM EDT
Nautical Twilight 5:39 AM EDT 9:18 PM EDT
Astronomical Twilight 5:05 AM EDT 9:52 PM EDT
Moon 7:02 AM EDT (5/10) 9:07 PM EDT (5/10)
Length of Visible Light 14h 35m
Length of Day
13h 41m
New Moon, 0% of the Moon is Illuminated
May 10
New Moon
May 18
First Quarter
May 25
Full
May 31
Last Quarter
Jun 8
New

Hourly Weather History & Observations

Time (EDT) Temp. Heat Index Dew Point Humidity Pressure Visibility Wind Dir Wind Speed Gust Speed Precip Events Conditions
12:15 AM 62.6 °F - 60.3 °F 92% 30.13 in 7.0 mi Calm Calm - N/A   Clear
12:35 AM 62.6 °F - 60.3 °F 92% 30.13 in 7.0 mi Calm Calm - N/A   Clear
12:55 AM 61.7 °F - 59.9 °F 94% 30.13 in 5.0 mi Calm Calm - N/A   Clear
1:15 AM 62.6 °F - 60.3 °F 92% 30.13 in 10.0 mi Calm Calm - N/A   Clear
1:35 AM 63.1 °F - 61.0 °F 93% 30.12 in 10.0 mi Calm Calm - N/A   Clear
1:55 AM 61.2 °F - 59.4 °F 94% 30.12 in 2.5 mi Calm Calm - N/A   Clear
2:15 AM 60.3 °F - 58.6 °F 94% 30.12 in 1.5 mi Calm Calm - N/A   Mist
2:55 AM 60.4 °F - 58.6 °F 94% 30.11 in 7.0 mi Calm Calm - N/A   Clear
3:15 AM 61.9 °F - 59.0 °F 90% 30.11 in 10.0 mi Calm Calm - N/A   Clear
3:35 AM 63.7 °F - 59.0 °F 85% 30.11 in 10.0 mi Calm Calm - N/A   Clear
3:55 AM 63.9 °F - 59.0 °F 84% 30.11 in 10.0 mi Calm Calm - N/A   Clear
4:15 AM 64.0 °F - 59.0 °F 84% 30.11 in 10.0 mi Calm Calm - N/A   Clear
4:35 AM 62.6 °F - 58.8 °F 87% 30.10 in 10.0 mi Calm Calm - N/A   Clear
4:55 AM 62.6 °F - 59.2 °F 89% 30.10 in 10.0 mi Calm Calm - N/A   Clear
5:15 AM 61.2 °F - 59.0 °F 93% 30.09 in 10.0 mi Calm Calm - N/A   Clear
5:35 AM 60.8 °F - 58.1 °F 91% 30.09 in 10.0 mi Calm Calm - N/A   Clear
5:55 AM 60.1 °F - 57.9 °F 93% 30.08 in 7.0 mi Calm Calm - N/A   Clear
6:15 AM 59.9 °F - 57.7 °F 93% 30.08 in 5.0 mi Calm Calm - N/A   Clear
6:35 AM 57.9 °F - 56.1 °F 94% 30.09 in 0.8 mi Calm Calm - N/A   Mist
6:55 AM 58.3 °F - 56.7 °F 94% 30.10 in 2.5 mi Calm Calm - N/A   Clear
7:15 AM 58.5 °F - 57.0 °F 95% 30.10 in 3.0 mi Calm Calm - N/A   Clear
7:35 AM 60.4 °F - 58.8 °F 94% 30.10 in 7.0 mi Calm Calm - N/A   Clear
7:55 AM 63.9 °F - 61.7 °F 93% 30.11 in 7.0 mi Calm Calm - N/A   Clear
8:15 AM 64.0 °F - 61.2 °F 90% 30.11 in 10.0 mi Calm Calm - N/A   Clear
8:35 AM 65.8 °F - 61.9 °F 87% 30.12 in 10.0 mi Calm Calm - N/A   Clear
8:55 AM 68.7 °F - 62.8 °F 81% 30.11 in 10.0 mi Calm Calm - N/A   Clear
9:15 AM 70.9 °F - 63.3 °F 77% 30.12 in 10.0 mi Calm Calm - N/A   Clear
9:35 AM 73.6 °F - 63.9 °F 72% 30.11 in 10.0 mi Calm Calm - N/A   Clear
9:55 AM 75.4 °F - 62.4 °F 64% 30.12 in 10.0 mi Calm Calm - N/A   Clear
10:15 AM 77.0 °F - 62.4 °F 61% 30.12 in 10.0 mi Calm Calm - N/A   Clear
10:35 AM 78.6 °F - 61.9 °F 56% 30.13 in 10.0 mi Calm Calm - N/A   Clear
10:55 AM 81.3 °F 81.9 °F 60.3 °F 49% 30.13 in 10.0 mi SW 4.6 mph - N/A   Clear
11:15 AM 82.2 °F 82.4 °F 59.4 °F 46% 30.13 in 10.0 mi SSW 5.8 mph - N/A   Clear
11:35 AM 82.6 °F 82.6 °F 59.5 °F 45% 30.13 in 10.0 mi SW 5.8 mph - N/A   Clear
11:55 AM 83.5 °F 83.1 °F 58.5 °F 42% 30.13 in 10.0 mi WSW 9.2 mph 17.3 mph N/A   Clear
12:15 PM 83.5 °F 83.1 °F 57.9 °F 42% 30.14 in 10.0 mi WSW 10.4 mph - N/A   Scattered Clouds
12:35 PM 83.1 °F 82.6 °F 57.0 °F 41% 30.13 in 10.0 mi SW 6.9 mph 17.3 mph N/A   Scattered Clouds
12:55 PM 84.6 °F 84.0 °F 58.3 °F 41% 30.12 in 10.0 mi WSW 6.9 mph 17.3 mph N/A   Scattered Clouds
1:15 PM 85.8 °F 84.5 °F 55.9 °F 36% 30.12 in 10.0 mi SSW 9.2 mph - N/A   Scattered Clouds
1:35 PM 85.8 °F 84.5 °F 55.9 °F 36% 30.11 in 10.0 mi SW 8.1 mph - N/A   Clear
1:55 PM 83.8 °F 82.7 °F 54.9 °F 37% 30.11 in 10.0 mi SW 6.9 mph - N/A   Mostly Cloudy
2:15 PM 85.1 °F 84.4 °F 58.1 °F 40% 30.10 in 10.0 mi WSW 4.6 mph - N/A   Scattered Clouds
2:35 PM 86.0 °F 84.9 °F 57.2 °F 37% 30.09 in 10.0 mi SSW 8.1 mph - N/A   Scattered Clouds
2:55 PM 85.1 °F 83.8 °F 55.4 °F 36% 30.08 in 10.0 mi SW 8.1 mph - N/A   Scattered Clouds
3:15 PM 85.5 °F 84.1 °F 55.9 °F 36% 30.07 in 10.0 mi SSW 8.1 mph - N/A   Scattered Clouds
3:35 PM 85.1 °F 83.9 °F 55.8 °F 37% 30.06 in 10.0 mi SSW 8.1 mph - N/A   Mostly Cloudy
3:55 PM 84.7 °F 83.6 °F 55.6 °F 37% 30.05 in 10.0 mi SSW 6.9 mph - N/A   Scattered Clouds
4:15 PM 83.8 °F 82.6 °F 54.3 °F 36% 30.04 in 10.0 mi SSW 6.9 mph - N/A   Scattered Clouds
4:35 PM 83.7 °F 82.7 °F 55.6 °F 38% 30.03 in 10.0 mi SW 3.5 mph - N/A   Clear
4:55 PM 83.5 °F 82.4 °F 54.7 °F 37% 30.03 in 10.0 mi SW 5.8 mph - N/A   Clear
5:15 PM 82.4 °F 81.8 °F 55.6 °F 40% 30.03 in 10.0 mi SSW 5.8 mph - N/A   Clear
5:35 PM 81.5 °F 81.3 °F 56.7 °F 42% 30.03 in 10.0 mi SW 5.8 mph - N/A   Clear
5:55 PM 81.0 °F 81.0 °F 57.0 °F 44% 30.02 in 10.0 mi Calm Calm - N/A   Clear
6:15 PM 82.0 °F 82.0 °F 58.1 °F 44% 30.02 in 10.0 mi Calm Calm - N/A   Clear
6:35 PM 81.3 °F 81.4 °F 58.3 °F 45% 30.01 in 10.0 mi Calm Calm - N/A   Clear
6:55 PM 80.2 °F 81.1 °F 60.4 °F 51% 30.01 in 10.0 mi SSW 3.5 mph - N/A   Clear
7:15 PM 79.7 °F - 59.4 °F 50% 30.01 in 10.0 mi Calm Calm - N/A   Clear
7:35 PM 79.7 °F - 60.4 °F 52% 30.01 in 10.0 mi Calm Calm - N/A   Clear
7:55 PM 78.4 °F - 60.3 °F 53% 30.01 in 10.0 mi Calm Calm - N/A   Clear
8:15 PM 77.7 °F - 59.0 °F 52% 30.01 in - SSW 3.5 mph - N/A   Clear
8:35 PM 72.1 °F - 61.2 °F 68% 30.02 in 10.0 mi Calm Calm - N/A   Clear
8:55 PM 72.0 °F - 61.9 °F 70% 30.02 in 10.0 mi Calm Calm - N/A   Clear
9:15 PM 69.3 °F - 62.2 °F 78% 30.01 in 10.0 mi Calm Calm - N/A   Clear
9:35 PM 67.6 °F - 62.4 °F 83% 30.02 in 10.0 mi Calm Calm - N/A   Clear
9:55 PM 67.8 °F - 62.6 °F 83% 30.02 in 10.0 mi Calm Calm - N/A   Clear
10:15 PM 65.5 °F - 61.7 °F 88% 30.04 in 10.0 mi Calm Calm - N/A   Clear
10:35 PM 65.5 °F - 62.8 °F 91% 30.04 in 10.0 mi Calm Calm - N/A   Clear
10:55 PM 63.5 °F - 61.3 °F 93% 30.05 in 7.0 mi Calm Calm - N/A   Clear
11:15 PM 64.8 °F - 61.5 °F 89% 30.05 in 10.0 mi Calm Calm - N/A   Clear
11:35 PM 63.5 °F - 61.3 °F 93% 30.05 in 7.0 mi Calm Calm - N/A   Clear
11:55 PM 63.5 °F - 61.7 °F 94% 30.05 in 7.0 mi Calm Calm - N/A   Clear